sensor_id;sensor_type;location;lat;lon;timestamp;P1;durP1;ratioP1;P2;durP2;ratioP2
9260;SDS011;4667;42.726;23.252;2023-03-11T00:02:12;1.70;;;1.60;;
9260;SDS011;4667;42.726;23.252;2023-03-11T00:04:39;1.40;;;1.30;;
9260;SDS011;4667;42.726;23.252;2023-03-11T00:07:06;1.30;;;1.10;;
9260;SDS011;4667;42.726;23.252;2023-03-11T00:09:32;1.20;;;1.10;;
9260;SDS011;4667;42.726;23.252;2023-03-11T00:12:01;2.20;;;1.20;;
9260;SDS011;4667;42.726;23.252;2023-03-11T00:14:28;1.70;;;1.50;;
9260;SDS011;4667;42.726;23.252;2023-03-11T00:16:54;2.77;;;1.77;;
9260;SDS011;4667;42.726;23.252;2023-03-11T00:19:21;1.40;;;1.30;;
9260;SDS011;4667;42.726;23.252;2023-03-11T00:21:47;1.67;;;1.43;;
9260;SDS011;4667;42.726;23.252;2023-03-11T00:24:14;2.17;;;1.53;;
9260;SDS011;4667;42.726;23.252;2023-03-11T00:26:40;1.27;;;1.17;;
9260;SDS011;4667;42.726;23.252;2023-03-11T00:29:08;3.43;;;1.10;;
9260;SDS011;4667;42.726;23.252;2023-03-11T00:31:34;1.43;;;1.30;;
9260;SDS011;4667;42.726;23.252;2023-03-11T00:34:01;1.10;;;1.10;;
9260;SDS011;4667;42.726;23.252;2023-03-11T00:36:28;1.37;;;1.27;;
9260;SDS011;4667;42.726;23.252;2023-03-11T00:38:57;1.33;;;1.27;;
9260;SDS011;4667;42.726;23.252;2023-03-11T00:41:24;1.43;;;1.10;;
9260;SDS011;4667;42.726;23.252;2023-03-11T00:43:50;1.10;;;1.10;;
9260;SDS011;4667;42.726;23.252;2023-03-11T00:46:18;1.10;;;1.10;;
9260;SDS011;4667;42.726;23.252;2023-03-11T00:48:45;1.00;;;1.00;;
9260;SDS011;4667;42.726;23.252;2023-03-11T00:51:12;1.40;;;1.30;;
9260;SDS011;4667;42.726;23.252;2023-03-11T00:53:39;3.17;;;1.20;;
9260;SDS011;4667;42.726;23.252;2023-03-11T00:56:06;1.23;;;1.13;;
9260;SDS011;4667;42.726;23.252;2023-03-11T00:58:33;1.33;;;1.23;;
9260;SDS011;4667;42.726;23.252;2023-03-11T01:00:59;1.00;;;0.93;;
9260;SDS011;4667;42.726;23.252;2023-03-11T01:03:27;1.33;;;1.23;;
9260;SDS011;4667;42.726;23.252;2023-03-11T01:05:54;1.10;;;1.10;;
9260;SDS011;4667;42.726;23.252;2023-03-11T01:08:20;1.13;;;1.07;;
9260;SDS011;4667;42.726;23.252;2023-03-11T01:10:47;1.20;;;1.10;;
9260;SDS011;4667;42.726;23.252;2023-03-11T01:13:13;1.30;;;1.20;;
9260;SDS011;4667;42.726;23.252;2023-03-11T01:15:40;1.57;;;1.33;;
9260;SDS011;4667;42.726;23.252;2023-03-11T01:18:06;1.30;;;1.20;;
9260;SDS011;4667;42.726;23.252;2023-03-11T01:20:35;1.00;;;1.00;;
9260;SDS011;4667;42.726;23.252;2023-03-11T01:23:01;1.27;;;1.17;;
9260;SDS011;4667;42.726;23.252;2023-03-11T01:25:28;1.40;;;1.30;;
9260;SDS011;4667;42.726;23.252;2023-03-11T01:27:54;1.47;;;1.37;;
9260;SDS011;4667;42.726;23.252;2023-03-11T01:30:21;1.70;;;1.60;;
9260;SDS011;4667;42.726;23.252;2023-03-11T01:32:48;2.73;;;1.53;;
9260;SDS011;4667;42.726;23.252;2023-03-11T01:35:16;2.83;;;1.57;;
9260;SDS011;4667;42.726;23.252;2023-03-11T01:37:44;4.50;;;2.27;;
9260;SDS011;4667;42.726;23.252;2023-03-11T01:40:12;3.23;;;2.00;;
9260;SDS011;4667;42.726;23.252;2023-03-11T01:42:40;4.40;;;2.97;;
9260;SDS011;4667;42.726;23.252;2023-03-11T01:45:13;2.33;;;1.20;;
9260;SDS011;4667;42.726;23.252;2023-03-11T01:47:50;3.53;;;3.07;;
9260;SDS011;4667;42.726;23.252;2023-03-11T01:50:16;3.10;;;1.67;;
9260;SDS011;4667;42.726;23.252;2023-03-11T01:52:44;1.63;;;1.33;;
9260;SDS011;4667;42.726;23.252;2023-03-11T01:55:11;1.40;;;1.30;;
9260;SDS011;4667;42.726;23.252;2023-03-11T01:57:37;1.33;;;1.23;;
9260;SDS011;4667;42.726;23.252;2023-03-11T02:00:06;1.40;;;1.30;;
9260;SDS011;4667;42.726;23.252;2023-03-11T02:02:34;1.27;;;1.17;;
9260;SDS011;4667;42.726;23.252;2023-03-11T02:05:01;1.10;;;1.00;;
9260;SDS011;4667;42.726;23.252;2023-03-11T02:07:27;2.60;;;1.20;;
9260;SDS011;4667;42.726;23.252;2023-03-11T02:09:55;1.17;;;1.10;;
9260;SDS011;4667;42.726;23.252;2023-03-11T02:12:22;1.40;;;1.30;;
9260;SDS011;4667;42.726;23.252;2023-03-11T02:14:49;1.20;;;1.10;;
9260;SDS011;4667;42.726;23.252;2023-03-11T02:17:18;1.30;;;1.30;;
9260;SDS011;4667;42.726;23.252;2023-03-11T02:19:52;1.20;;;1.10;;
9260;SDS011;4667;42.726;23.252;2023-03-11T02:22:21;1.60;;;1.47;;
9260;SDS011;4667;42.726;23.252;2023-03-11T02:24:49;1.37;;;1.27;;
9260;SDS011;4667;42.726;23.252;2023-03-11T02:27:20;1.50;;;1.40;;
9260;SDS011;4667;42.726;23.252;2023-03-11T02:29:47;1.70;;;1.60;;
9260;SDS011;4667;42.726;23.252;2023-03-11T02:32:14;2.37;;;1.60;;
9260;SDS011;4667;42.726;23.252;2023-03-11T02:34:41;5.23;;;1.60;;
9260;SDS011;4667;42.726;23.252;2023-03-11T02:37:08;1.40;;;1.30;;
9260;SDS011;4667;42.726;23.252;2023-03-11T02:39:35;1.67;;;1.30;;
9260;SDS011;4667;42.726;23.252;2023-03-11T02:42:03;1.70;;;1.60;;
9260;SDS011;4667;42.726;23.252;2023-03-11T02:44:32;1.43;;;1.33;;
9260;SDS011;4667;42.726;23.252;2023-03-11T02:46:58;1.83;;;1.60;;
9260;SDS011;4667;42.726;23.252;2023-03-11T02:49:25;1.40;;;1.30;;
9260;SDS011;4667;42.726;23.252;2023-03-11T02:51:52;1.70;;;1.60;;
9260;SDS011;4667;42.726;23.252;2023-03-11T02:54:18;4.30;;;1.37;;
9260;SDS011;4667;42.726;23.252;2023-03-11T02:56:45;1.57;;;1.47;;
9260;SDS011;4667;42.726;23.252;2023-03-11T02:59:11;2.83;;;1.63;;
9260;SDS011;4667;42.726;23.252;2023-03-11T03:01:39;1.40;;;1.30;;
9260;SDS011;4667;42.726;23.252;2023-03-11T03:04:05;4.00;;;1.57;;
9260;SDS011;4667;42.726;23.252;2023-03-11T03:06:32;1.70;;;1.60;;
9260;SDS011;4667;42.726;23.252;2023-03-11T03:08:58;1.60;;;1.50;;
9260;SDS011;4667;42.726;23.252;2023-03-11T03:11:25;2.17;;;1.70;;
9260;SDS011;4667;42.726;23.252;2023-03-11T03:13:51;1.40;;;1.30;;
9260;SDS011;4667;42.726;23.252;2023-03-11T03:16:17;1.40;;;1.30;;
9260;SDS011;4667;42.726;23.252;2023-03-11T03:18:45;1.50;;;1.40;;
9260;SDS011;4667;42.726;23.252;2023-03-11T03:21:12;1.63;;;1.53;;
9260;SDS011;4667;42.726;23.252;2023-03-11T03:23:38;2.33;;;1.70;;
9260;SDS011;4667;42.726;23.252;2023-03-11T03:26:05;1.77;;;1.67;;
9260;SDS011;4667;42.726;23.252;2023-03-11T03:28:31;2.10;;;1.67;;
9260;SDS011;4667;42.726;23.252;2023-03-11T03:31:02;1.60;;;1.50;;
9260;SDS011;4667;42.726;23.252;2023-03-11T03:33:29;1.67;;;1.50;;
9260;SDS011;4667;42.726;23.252;2023-03-11T03:35:57;2.23;;;2.00;;
9260;SDS011;4667;42.726;23.252;2023-03-11T03:38:23;1.53;;;1.43;;
9260;SDS011;4667;42.726;23.252;2023-03-11T03:40:50;1.93;;;1.80;;
9260;SDS011;4667;42.726;23.252;2023-03-11T03:43:16;1.60;;;1.50;;
9260;SDS011;4667;42.726;23.252;2023-03-11T03:45:43;1.67;;;1.57;;
9260;SDS011;4667;42.726;23.252;2023-03-11T03:48:09;1.60;;;1.50;;
9260;SDS011;4667;42.726;23.252;2023-03-11T03:50:35;1.40;;;1.30;;
9260;SDS011;4667;42.726;23.252;2023-03-11T03:53:03;1.30;;;1.20;;
9260;SDS011;4667;42.726;23.252;2023-03-11T03:55:30;2.47;;;1.73;;
9260;SDS011;4667;42.726;23.252;2023-03-11T03:57:56;2.60;;;1.63;;
9260;SDS011;4667;42.726;23.252;2023-03-11T04:00:23;1.63;;;1.40;;
9260;SDS011;4667;42.726;23.252;2023-03-11T04:02:49;1.20;;;1.10;;
9260;SDS011;4667;42.726;23.252;2023-03-11T04:05:16;1.80;;;1.57;;
9260;SDS011;4667;42.726;23.252;2023-03-11T04:07:42;1.63;;;1.53;;
9260;SDS011;4667;42.726;23.252;2023-03-11T04:10:12;1.73;;;1.53;;
9260;SDS011;4667;42.726;23.252;2023-03-11T04:12:38;1.40;;;1.17;;
9260;SDS011;4667;42.726;23.252;2023-03-11T04:15:05;1.37;;;1.27;;
9260;SDS011;4667;42.726;23.252;2023-03-11T04:17:32;1.20;;;1.20;;
9260;SDS011;4667;42.726;23.252;2023-03-11T04:19:58;1.20;;;1.10;;
9260;SDS011;4667;42.726;23.252;2023-03-11T04:22:25;1.27;;;1.17;;
9260;SDS011;4667;42.726;23.252;2023-03-11T04:24:51;2.30;;;1.50;;
9260;SDS011;4667;42.726;23.252;2023-03-11T04:27:19;1.20;;;1.10;;
9260;SDS011;4667;42.726;23.252;2023-03-11T04:29:45;1.67;;;1.40;;
9260;SDS011;4667;42.726;23.252;2023-03-11T04:32:12;1.93;;;1.60;;
9260;SDS011;4667;42.726;23.252;2023-03-11T04:34:38;1.40;;;1.30;;
9260;SDS011;4667;42.726;23.252;2023-03-11T04:37:06;2.20;;;1.30;;
9260;SDS011;4667;42.726;23.252;2023-03-11T04:39:32;1.60;;;1.50;;
9260;SDS011;4667;42.726;23.252;2023-03-11T04:41:59;1.40;;;1.30;;
9260;SDS011;4667;42.726;23.252;2023-03-11T04:44:26;1.37;;;1.10;;
9260;SDS011;4667;42.726;23.252;2023-03-11T04:46:53;1.63;;;1.53;;
9260;SDS011;4667;42.726;23.252;2023-03-11T04:49:19;1.60;;;1.50;;
9260;SDS011;4667;42.726;23.252;2023-03-11T04:51:46;1.27;;;1.17;;
9260;SDS011;4667;42.726;23.252;2023-03-11T04:54:12;1.63;;;1.53;;
9260;SDS011;4667;42.726;23.252;2023-03-11T04:56:39;1.50;;;1.40;;
9260;SDS011;4667;42.726;23.252;2023-03-11T04:59:05;1.50;;;1.40;;
9260;SDS011;4667;42.726;23.252;2023-03-11T05:01:33;1.57;;;1.47;;
9260;SDS011;4667;42.726;23.252;2023-03-11T05:03:59;1.20;;;1.20;;
9260;SDS011;4667;42.726;23.252;2023-03-11T05:06:26;1.50;;;1.40;;
9260;SDS011;4667;42.726;23.252;2023-03-11T05:08:52;1.37;;;1.27;;
9260;SDS011;4667;42.726;23.252;2023-03-11T05:11:19;2.10;;;1.90;;
9260;SDS011;4667;42.726;23.252;2023-03-11T05:13:45;2.07;;;1.50;;
9260;SDS011;4667;42.726;23.252;2023-03-11T05:16:12;2.13;;;1.50;;
9260;SDS011;4667;42.726;23.252;2023-03-11T05:18:39;1.73;;;1.63;;
9260;SDS011;4667;42.726;23.252;2023-03-11T05:21:06;1.57;;;1.47;;
9260;SDS011;4667;42.726;23.252;2023-03-11T05:23:32;1.60;;;1.50;;
9260;SDS011;4667;42.726;23.252;2023-03-11T05:25:59;1.33;;;1.23;;
9260;SDS011;4667;42.726;23.252;2023-03-11T05:28:26;2.57;;;2.00;;
9260;SDS011;4667;42.726;23.252;2023-03-11T05:30:52;1.47;;;1.37;;
9260;SDS011;4667;42.726;23.252;2023-03-11T05:33:19;1.50;;;1.40;;
9260;SDS011;4667;42.726;23.252;2023-03-11T05:35:46;1.60;;;1.50;;
9260;SDS011;4667;42.726;23.252;2023-03-11T05:38:15;1.47;;;1.27;;
9260;SDS011;4667;42.726;23.252;2023-03-11T05:40:42;1.80;;;1.50;;
9260;SDS011;4667;42.726;23.252;2023-03-11T05:43:08;1.40;;;1.30;;
9260;SDS011;4667;42.726;23.252;2023-03-11T05:45:35;2.63;;;1.80;;
9260;SDS011;4667;42.726;23.252;2023-03-11T05:48:01;4.63;;;1.70;;
9260;SDS011;4667;42.726;23.252;2023-03-11T05:50:28;1.50;;;1.40;;
9260;SDS011;4667;42.726;23.252;2023-03-11T05:52:56;1.40;;;1.30;;
9260;SDS011;4667;42.726;23.252;2023-03-11T05:55:22;1.23;;;1.13;;
9260;SDS011;4667;42.726;23.252;2023-03-11T05:57:49;1.67;;;1.33;;
9260;SDS011;4667;42.726;23.252;2023-03-11T06:00:16;3.40;;;1.60;;
9260;SDS011;4667;42.726;23.252;2023-03-11T06:02:44;1.77;;;1.63;;
9260;SDS011;4667;42.726;23.252;2023-03-11T06:05:11;1.67;;;1.57;;
9260;SDS011;4667;42.726;23.252;2023-03-11T06:07:37;1.40;;;1.30;;
9260;SDS011;4667;42.726;23.252;2023-03-11T06:10:06;1.50;;;1.40;;
9260;SDS011;4667;42.726;23.252;2023-03-11T06:12:32;3.23;;;1.70;;
9260;SDS011;4667;42.726;23.252;2023-03-11T06:14:59;2.20;;;2.00;;
9260;SDS011;4667;42.726;23.252;2023-03-11T06:17:25;2.07;;;1.97;;
9260;SDS011;4667;42.726;23.252;2023-03-11T06:19:52;1.70;;;1.60;;
9260;SDS011;4667;42.726;23.252;2023-03-11T06:22:18;2.17;;;1.80;;
9260;SDS011;4667;42.726;23.252;2023-03-11T06:24:45;1.90;;;1.80;;
9260;SDS011;4667;42.726;23.252;2023-03-11T06:27:13;2.17;;;1.77;;
9260;SDS011;4667;42.726;23.252;2023-03-11T06:29:39;1.80;;;1.70;;
9260;SDS011;4667;42.726;23.252;2023-03-11T06:32:06;2.03;;;1.57;;
9260;SDS011;4667;42.726;23.252;2023-03-11T06:34:32;1.57;;;1.47;;
9260;SDS011;4667;42.726;23.252;2023-03-11T06:36:59;1.73;;;1.53;;
9260;SDS011;4667;42.726;23.252;2023-03-11T06:39:25;1.53;;;1.43;;
9260;SDS011;4667;42.726;23.252;2023-03-11T06:41:52;2.97;;;2.13;;
9260;SDS011;4667;42.726;23.252;2023-03-11T06:44:20;2.10;;;1.73;;
9260;SDS011;4667;42.726;23.252;2023-03-11T06:46:47;1.73;;;1.40;;
9260;SDS011;4667;42.726;23.252;2023-03-11T06:49:13;3.23;;;1.40;;
9260;SDS011;4667;42.726;23.252;2023-03-11T06:51:40;1.60;;;1.50;;
9260;SDS011;4667;42.726;23.252;2023-03-11T06:54:06;2.53;;;1.60;;
9260;SDS011;4667;42.726;23.252;2023-03-11T06:56:33;2.07;;;1.87;;
9260;SDS011;4667;42.726;23.252;2023-03-11T06:58:59;2.03;;;1.50;;
9260;SDS011;4667;42.726;23.252;2023-03-11T07:01:27;1.70;;;1.60;;
9260;SDS011;4667;42.726;23.252;2023-03-11T07:03:54;2.20;;;1.70;;
9260;SDS011;4667;42.726;23.252;2023-03-11T07:06:21;1.77;;;1.47;;
9260;SDS011;4667;42.726;23.252;2023-03-11T07:08:49;3.40;;;1.80;;
9260;SDS011;4667;42.726;23.252;2023-03-11T07:11:16;2.27;;;1.90;;
9260;SDS011;4667;42.726;23.252;2023-03-11T07:13:43;3.77;;;2.37;;
9260;SDS011;4667;42.726;23.252;2023-03-11T07:16:11;4.13;;;2.73;;
9260;SDS011;4667;42.726;23.252;2023-03-11T07:18:41;5.40;;;2.30;;
9260;SDS011;4667;42.726;23.252;2023-03-11T07:21:08;2.20;;;2.00;;
9260;SDS011;4667;42.726;23.252;2023-03-11T07:23:35;4.03;;;2.07;;
9260;SDS011;4667;42.726;23.252;2023-03-11T07:26:01;1.87;;;1.77;;
9260;SDS011;4667;42.726;23.252;2023-03-11T07:28:29;2.40;;;1.67;;
9260;SDS011;4667;42.726;23.252;2023-03-11T07:30:55;1.90;;;1.57;;
9260;SDS011;4667;42.726;23.252;2023-03-11T07:33:22;1.80;;;1.67;;
9260;SDS011;4667;42.726;23.252;2023-03-11T07:35:50;3.27;;;1.97;;
9260;SDS011;4667;42.726;23.252;2023-03-11T07:38:17;1.83;;;1.20;;
9260;SDS011;4667;42.726;23.252;2023-03-11T07:40:43;1.50;;;1.40;;
9260;SDS011;4667;42.726;23.252;2023-03-11T07:43:11;1.43;;;1.33;;
9260;SDS011;4667;42.726;23.252;2023-03-11T07:45:38;1.37;;;1.27;;
9260;SDS011;4667;42.726;23.252;2023-03-11T07:48:04;1.23;;;1.13;;
9260;SDS011;4667;42.726;23.252;2023-03-11T07:50:31;1.30;;;1.20;;
9260;SDS011;4667;42.726;23.252;2023-03-11T07:52:59;1.83;;;1.40;;
9260;SDS011;4667;42.726;23.252;2023-03-11T07:55:25;2.07;;;1.57;;
9260;SDS011;4667;42.726;23.252;2023-03-11T07:57:51;0.90;;;0.90;;
9260;SDS011;4667;42.726;23.252;2023-03-11T08:00:18;1.73;;;1.40;;
9260;SDS011;4667;42.726;23.252;2023-03-11T08:02:45;1.20;;;1.10;;
9260;SDS011;4667;42.726;23.252;2023-03-11T08:05:11;1.20;;;1.10;;
9260;SDS011;4667;42.726;23.252;2023-03-11T08:07:38;1.10;;;1.00;;
9260;SDS011;4667;42.726;23.252;2023-03-11T08:10:06;1.50;;;1.20;;
9260;SDS011;4667;42.726;23.252;2023-03-11T08:12:32;1.23;;;1.00;;
9260;SDS011;4667;42.726;23.252;2023-03-11T08:14:59;1.17;;;1.10;;
9260;SDS011;4667;42.726;23.252;2023-03-11T08:17:25;2.30;;;1.30;;
9260;SDS011;4667;42.726;23.252;2023-03-11T08:19:52;2.13;;;1.60;;
9260;SDS011;4667;42.726;23.252;2023-03-11T08:22:18;1.50;;;1.40;;
9260;SDS011;4667;42.726;23.252;2023-03-11T08:24:45;1.57;;;1.30;;
9260;SDS011;4667;42.726;23.252;2023-03-11T08:27:16;0.90;;;0.80;;
9260;SDS011;4667;42.726;23.252;2023-03-11T08:29:43;1.27;;;1.20;;
9260;SDS011;4667;42.726;23.252;2023-03-11T08:32:09;2.60;;;1.10;;
9260;SDS011;4667;42.726;23.252;2023-03-11T08:34:36;2.37;;;1.20;;
9260;SDS011;4667;42.726;23.252;2023-03-11T08:37:03;0.93;;;0.93;;
9260;SDS011;4667;42.726;23.252;2023-03-11T08:39:30;1.20;;;1.10;;
9260;SDS011;4667;42.726;23.252;2023-03-11T08:41:56;1.63;;;1.30;;
9260;SDS011;4667;42.726;23.252;2023-03-11T08:44:25;1.20;;;1.10;;
9260;SDS011;4667;42.726;23.252;2023-03-11T08:46:51;0.90;;;0.90;;
9260;SDS011;4667;42.726;23.252;2023-03-11T08:49:18;1.20;;;1.07;;
9260;SDS011;4667;42.726;23.252;2023-03-11T08:51:44;1.23;;;1.13;;
9260;SDS011;4667;42.726;23.252;2023-03-11T08:54:11;1.30;;;1.20;;
9260;SDS011;4667;42.726;23.252;2023-03-11T08:56:37;1.58;;;1.00;;
9260;SDS011;4667;42.726;23.252;2023-03-11T08:59:04;1.42;;;1.00;;
9260;SDS011;4667;42.726;23.252;2023-03-11T09:01:32;2.70;;;1.17;;
9260;SDS011;4667;42.726;23.252;2023-03-11T09:03:59;1.42;;;1.10;;
9260;SDS011;4667;42.726;23.252;2023-03-11T09:06:25;1.10;;;1.00;;
9260;SDS011;4667;42.726;23.252;2023-03-11T09:08:54;1.63;;;0.90;;
9260;SDS011;4667;42.726;23.252;2023-03-11T09:11:20;2.33;;;1.42;;
9260;SDS011;4667;42.726;23.252;2023-03-11T09:13:47;1.10;;;1.00;;
9260;SDS011;4667;42.726;23.252;2023-03-11T09:16:15;1.30;;;1.20;;
9260;SDS011;4667;42.726;23.252;2023-03-11T09:18:43;1.00;;;1.00;;
9260;SDS011;4667;42.726;23.252;2023-03-11T09:21:09;1.50;;;1.03;;
9260;SDS011;4667;42.726;23.252;2023-03-11T09:23:37;1.13;;;1.03;;
9260;SDS011;4667;42.726;23.252;2023-03-11T09:26:04;4.65;;;1.20;;
9260;SDS011;4667;42.726;23.252;2023-03-11T09:28:30;1.33;;;0.97;;
9260;SDS011;4667;42.726;23.252;2023-03-11T09:30:57;1.17;;;1.10;;
9260;SDS011;4667;42.726;23.252;2023-03-11T09:33:23;1.20;;;1.10;;
9260;SDS011;4667;42.726;23.252;2023-03-11T09:35:51;1.90;;;1.13;;
9260;SDS011;4667;42.726;23.252;2023-03-11T09:38:18;1.40;;;0.98;;
9260;SDS011;4667;42.726;23.252;2023-03-11T09:40:48;1.20;;;1.10;;
9260;SDS011;4667;42.726;23.252;2023-03-11T09:43:18;2.25;;;0.90;;
9260;SDS011;4667;42.726;23.252;2023-03-11T09:45:48;1.05;;;0.95;;
9260;SDS011;4667;42.726;23.252;2023-03-11T09:48:17;1.10;;;1.00;;
9260;SDS011;4667;42.726;23.252;2023-03-11T09:50:46;1.63;;;1.27;;
9260;SDS011;4667;42.726;23.252;2023-03-11T09:53:20;1.10;;;1.00;;
9260;SDS011;4667;42.726;23.252;2023-03-11T09:55:48;1.27;;;1.17;;
9260;SDS011;4667;42.726;23.252;2023-03-11T09:58:16;2.83;;;1.42;;
9260;SDS011;4667;42.726;23.252;2023-03-11T10:00:44;2.65;;;0.98;;
9260;SDS011;4667;42.726;23.252;2023-03-11T10:03:14;1.25;;;0.93;;
9260;SDS011;4667;42.726;23.252;2023-03-11T10:05:42;1.02;;;0.90;;
9260;SDS011;4667;42.726;23.252;2023-03-11T10:08:11;1.90;;;0.98;;
9260;SDS011;4667;42.726;23.252;2023-03-11T10:10:44;0.95;;;0.90;;
9260;SDS011;4667;42.726;23.252;2023-03-11T10:13:14;1.35;;;0.93;;
9260;SDS011;4667;42.726;23.252;2023-03-11T10:15:43;1.23;;;1.00;;
9260;SDS011;4667;42.726;23.252;2023-03-11T10:18:20;1.65;;;1.10;;
9260;SDS011;4667;42.726;23.252;2023-03-11T10:20:49;1.35;;;1.00;;
9260;SDS011;4667;42.726;23.252;2023-03-11T10:23:21;1.35;;;1.05;;
9260;SDS011;4667;42.726;23.252;2023-03-11T10:25:53;1.02;;;0.93;;
9260;SDS011;4667;42.726;23.252;2023-03-11T10:28:23;1.60;;;1.35;;
9260;SDS011;4667;42.726;23.252;2023-03-11T10:30:53;1.45;;;1.25;;
9260;SDS011;4667;42.726;23.252;2023-03-11T10:33:23;1.23;;;1.08;;
9260;SDS011;4667;42.726;23.252;2023-03-11T10:35:52;2.70;;;1.02;;
9260;SDS011;4667;42.726;23.252;2023-03-11T10:38:21;1.33;;;1.10;;
9260;SDS011;4667;42.726;23.252;2023-03-11T10:40:49;1.13;;;1.00;;
9260;SDS011;4667;42.726;23.252;2023-03-11T10:43:23;3.03;;;1.52;;
9260;SDS011;4667;42.726;23.252;2023-03-11T10:45:51;1.30;;;1.20;;
9260;SDS011;4667;42.726;23.252;2023-03-11T10:48:19;3.03;;;1.15;;
9260;SDS011;4667;42.726;23.252;2023-03-11T10:50:49;2.03;;;0.90;;
9260;SDS011;4667;42.726;23.252;2023-03-11T10:53:18;1.17;;;1.00;;
9260;SDS011;4667;42.726;23.252;2023-03-11T10:55:46;3.53;;;1.37;;
9260;SDS011;4667;42.726;23.252;2023-03-11T10:58:14;1.53;;;1.07;;
9260;SDS011;4667;42.726;23.252;2023-03-11T11:00:45;3.13;;;1.40;;
9260;SDS011;4667;42.726;23.252;2023-03-11T11:03:14;1.43;;;1.33;;
9260;SDS011;4667;42.726;23.252;2023-03-11T11:05:42;1.97;;;1.30;;
9260;SDS011;4667;42.726;23.252;2023-03-11T11:08:11;1.93;;;1.83;;
9260;SDS011;4667;42.726;23.252;2023-03-11T11:10:47;1.33;;;1.00;;
9260;SDS011;4667;42.726;23.252;2023-03-11T11:13:18;2.20;;;1.33;;
9260;SDS011;4667;42.726;23.252;2023-03-11T11:16:09;1.23;;;1.13;;
9260;SDS011;4667;42.726;23.252;2023-03-11T11:18:43;1.30;;;0.93;;
9260;SDS011;4667;42.726;23.252;2023-03-11T11:21:12;1.20;;;0.95;;
9260;SDS011;4667;42.726;23.252;2023-03-11T11:23:40;1.63;;;1.13;;
9260;SDS011;4667;42.726;23.252;2023-03-11T11:26:13;1.13;;;1.02;;
9260;SDS011;4667;42.726;23.252;2023-03-11T11:28:40;1.27;;;0.90;;
9260;SDS011;4667;42.726;23.252;2023-03-11T11:31:21;1.10;;;1.00;;
9260;SDS011;4667;42.726;23.252;2023-03-11T11:33:49;1.20;;;1.10;;
9260;SDS011;4667;42.726;23.252;2023-03-11T11:36:18;1.20;;;1.10;;
9260;SDS011;4667;42.726;23.252;2023-03-11T11:38:47;2.45;;;1.63;;
9260;SDS011;4667;42.726;23.252;2023-03-11T11:41:14;1.10;;;1.00;;
9260;SDS011;4667;42.726;23.252;2023-03-11T11:43:45;1.42;;;1.33;;
9260;SDS011;4667;42.726;23.252;2023-03-11T11:46:14;1.48;;;0.90;;
9260;SDS011;4667;42.726;23.252;2023-03-11T11:48:48;1.10;;;1.00;;
9260;SDS011;4667;42.726;23.252;2023-03-11T11:51:18;1.00;;;0.90;;
9260;SDS011;4667;42.726;23.252;2023-03-11T11:53:47;4.13;;;1.60;;
9260;SDS011;4667;42.726;23.252;2023-03-11T11:56:16;1.38;;;1.25;;
9260;SDS011;4667;42.726;23.252;2023-03-11T11:58:43;1.30;;;1.10;;
9260;SDS011;4667;42.726;23.252;2023-03-11T12:01:14;0.90;;;0.90;;
9260;SDS011;4667;42.726;23.252;2023-03-11T12:03:45;1.33;;;1.23;;
9260;SDS011;4667;42.726;23.252;2023-03-11T12:06:20;1.27;;;1.05;;
9260;SDS011;4667;42.726;23.252;2023-03-11T12:08:54;1.40;;;1.30;;
9260;SDS011;4667;42.726;23.252;2023-03-11T12:11:27;2.75;;;1.20;;
9260;SDS011;4667;42.726;23.252;2023-03-11T12:13:57;1.40;;;1.02;;
9260;SDS011;4667;42.726;23.252;2023-03-11T12:16:30;0.88;;;0.85;;
9260;SDS011;4667;42.726;23.252;2023-03-11T12:19:01;2.40;;;1.38;;
9260;SDS011;4667;42.726;23.252;2023-03-11T12:21:35;1.50;;;1.02;;
9260;SDS011;4667;42.726;23.252;2023-03-11T12:24:10;3.60;;;1.00;;
9260;SDS011;4667;42.726;23.252;2023-03-11T12:26:43;2.75;;;1.70;;
9260;SDS011;4667;42.726;23.252;2023-03-11T12:29:12;3.80;;;1.10;;
9260;SDS011;4667;42.726;23.252;2023-03-11T12:31:42;4.77;;;1.13;;
9260;SDS011;4667;42.726;23.252;2023-03-11T12:34:11;1.53;;;1.30;;
9260;SDS011;4667;42.726;23.252;2023-03-11T12:36:43;1.52;;;1.42;;
9260;SDS011;4667;42.726;23.252;2023-03-11T12:39:18;1.92;;;1.08;;
9260;SDS011;4667;42.726;23.252;2023-03-11T12:41:47;1.53;;;1.17;;
9260;SDS011;4667;42.726;23.252;2023-03-11T12:44:24;1.53;;;1.20;;
9260;SDS011;4667;42.726;23.252;2023-03-11T12:49:47;1.20;;;1.10;;
9260;SDS011;4667;42.726;23.252;2023-03-11T12:52:24;1.87;;;1.50;;
9260;SDS011;4667;42.726;23.252;2023-03-11T12:57:39;0.90;;;0.90;;
9260;SDS011;4667;42.726;23.252;2023-03-11T13:03:06;1.00;;;0.93;;
9260;SDS011;4667;42.726;23.252;2023-03-11T13:05:42;1.80;;;1.07;;
9260;SDS011;4667;42.726;23.252;2023-03-11T13:08:17;2.33;;;1.07;;
9260;SDS011;4667;42.726;23.252;2023-03-11T13:10:45;1.17;;;1.07;;
9260;SDS011;4667;42.726;23.252;2023-03-11T13:13:31;3.20;;;1.20;;
9260;SDS011;4667;42.726;23.252;2023-03-11T13:18:50;3.80;;;1.93;;
9260;SDS011;4667;42.726;23.252;2023-03-11T13:26:58;1.87;;;1.77;;
9260;SDS011;4667;42.726;23.252;2023-03-11T13:29:42;1.80;;;1.60;;
9260;SDS011;4667;42.726;23.252;2023-03-11T13:32:29;1.50;;;1.00;;
9260;SDS011;4667;42.726;23.252;2023-03-11T13:35:00;1.33;;;1.10;;
9260;SDS011;4667;42.726;23.252;2023-03-11T13:37:36;1.27;;;1.17;;
9260;SDS011;4667;42.726;23.252;2023-03-11T13:40:12;1.30;;;1.20;;
9260;SDS011;4667;42.726;23.252;2023-03-11T13:42:47;1.60;;;1.50;;
9260;SDS011;4667;42.726;23.252;2023-03-11T13:45:18;1.33;;;1.23;;
9260;SDS011;4667;42.726;23.252;2023-03-11T13:47:47;1.60;;;1.50;;
9260;SDS011;4667;42.726;23.252;2023-03-11T13:50:17;2.10;;;1.40;;
9260;SDS011;4667;42.726;23.252;2023-03-11T13:52:46;6.77;;;1.30;;
9260;SDS011;4667;42.726;23.252;2023-03-11T13:55:16;1.50;;;1.40;;
9260;SDS011;4667;42.726;23.252;2023-03-11T13:57:49;1.47;;;1.37;;
9260;SDS011;4667;42.726;23.252;2023-03-11T14:00:18;1.77;;;1.40;;
9260;SDS011;4667;42.726;23.252;2023-03-11T14:02:49;2.10;;;1.90;;
9260;SDS011;4667;42.726;23.252;2023-03-11T14:05:20;2.50;;;1.63;;
9260;SDS011;4667;42.726;23.252;2023-03-11T14:07:48;2.70;;;1.83;;
9260;SDS011;4667;42.726;23.252;2023-03-11T14:10:16;2.87;;;1.87;;
9260;SDS011;4667;42.726;23.252;2023-03-11T14:12:43;4.53;;;2.17;;
9260;SDS011;4667;42.726;23.252;2023-03-11T14:15:14;2.33;;;1.90;;
9260;SDS011;4667;42.726;23.252;2023-03-11T14:17:43;3.37;;;2.10;;
9260;SDS011;4667;42.726;23.252;2023-03-11T14:20:12;4.07;;;2.73;;
9260;SDS011;4667;42.726;23.252;2023-03-11T14:22:45;3.73;;;2.30;;
9260;SDS011;4667;42.726;23.252;2023-03-11T14:25:16;2.50;;;1.97;;
9260;SDS011;4667;42.726;23.252;2023-03-11T14:28:03;3.83;;;2.30;;
9260;SDS011;4667;42.726;23.252;2023-03-11T14:30:32;4.07;;;2.50;;
9260;SDS011;4667;42.726;23.252;2023-03-11T14:33:00;3.47;;;2.57;;
9260;SDS011;4667;42.726;23.252;2023-03-11T14:35:31;2.20;;;2.00;;
9260;SDS011;4667;42.726;23.252;2023-03-11T14:38:00;5.00;;;3.03;;
9260;SDS011;4667;42.726;23.252;2023-03-11T14:40:28;3.40;;;2.50;;
9260;SDS011;4667;42.726;23.252;2023-03-11T14:42:56;3.03;;;2.43;;
9260;SDS011;4667;42.726;23.252;2023-03-11T14:45:28;2.70;;;2.10;;
9260;SDS011;4667;42.726;23.252;2023-03-11T14:47:58;4.07;;;2.33;;
9260;SDS011;4667;42.726;23.252;2023-03-11T14:50:27;4.13;;;2.53;;
9260;SDS011;4667;42.726;23.252;2023-03-11T14:52:55;2.20;;;2.00;;
9260;SDS011;4667;42.726;23.252;2023-03-11T14:55:25;6.33;;;2.70;;
9260;SDS011;4667;42.726;23.252;2023-03-11T14:57:55;4.00;;;3.10;;
9260;SDS011;4667;42.726;23.252;2023-03-11T15:00:24;5.63;;;3.10;;
9260;SDS011;4667;42.726;23.252;2023-03-11T15:03:11;3.17;;;2.70;;
9260;SDS011;4667;42.726;23.252;2023-03-11T15:05:43;4.20;;;2.70;;
9260;SDS011;4667;42.726;23.252;2023-03-11T15:08:12;3.67;;;2.43;;
9260;SDS011;4667;42.726;23.252;2023-03-11T15:13:23;4.23;;;3.83;;
9260;SDS011;4667;42.726;23.252;2023-03-11T15:16:03;4.47;;;2.60;;
9260;SDS011;4667;42.726;23.252;2023-03-11T16:28:34;2.60;;;2.40;;
9260;SDS011;4667;42.726;23.252;2023-03-11T16:31:19;2.37;;;2.17;;
9260;SDS011;4667;42.726;23.252;2023-03-11T16:33:48;2.30;;;1.93;;
9260;SDS011;4667;42.726;23.252;2023-03-11T16:36:29;7.07;;;4.60;;
9260;SDS011;4667;42.726;23.252;2023-03-11T16:39:09;3.90;;;3.00;;